sensor_id;sensor_type;location;lat;lon;timestamp;P1;durP1;ratioP1;P2;durP2;ratioP2
51987;SDS011;38003;52.012;4.346;2024-02-23T00:02:26;10.97;;;5.07;;
51987;SDS011;38003;52.012;4.346;2024-02-23T00:04:55;9.47;;;4.30;;
51987;SDS011;38003;52.012;4.346;2024-02-23T00:07:23;10.97;;;5.10;;
51987;SDS011;38003;52.012;4.346;2024-02-23T00:09:51;11.40;;;5.00;;
51987;SDS011;38003;52.012;4.346;2024-02-23T00:12:21;7.20;;;3.60;;
51987;SDS011;38003;52.012;4.346;2024-02-23T00:14:49;7.13;;;2.77;;
51987;SDS011;38003;52.012;4.346;2024-02-23T00:17:18;9.20;;;2.90;;
51987;SDS011;38003;52.012;4.346;2024-02-23T00:19:46;9.60;;;2.83;;
51987;SDS011;38003;52.012;4.346;2024-02-23T00:22:15;7.57;;;2.20;;
51987;SDS011;38003;52.012;4.346;2024-02-23T00:24:43;9.83;;;2.40;;
51987;SDS011;38003;52.012;4.346;2024-02-23T00:27:11;7.73;;;2.37;;
51987;SDS011;38003;52.012;4.346;2024-02-23T00:29:41;6.87;;;2.50;;
51987;SDS011;38003;52.012;4.346;2024-02-23T00:32:10;10.90;;;2.03;;
51987;SDS011;38003;52.012;4.346;2024-02-23T00:34:39;4.83;;;1.60;;
51987;SDS011;38003;52.012;4.346;2024-02-23T00:37:07;11.87;;;1.90;;
51987;SDS011;38003;52.012;4.346;2024-02-23T00:39:35;7.53;;;2.23;;
51987;SDS011;38003;52.012;4.346;2024-02-23T00:42:03;14.00;;;2.40;;
51987;SDS011;38003;52.012;4.346;2024-02-23T00:44:32;10.77;;;2.20;;
51987;SDS011;38003;52.012;4.346;2024-02-23T00:47:01;9.77;;;1.77;;
51987;SDS011;38003;52.012;4.346;2024-02-23T00:49:30;7.27;;;2.07;;
51987;SDS011;38003;52.012;4.346;2024-02-23T00:51:58;10.00;;;2.07;;
51987;SDS011;38003;52.012;4.346;2024-02-23T00:54:27;7.97;;;1.80;;
51987;SDS011;38003;52.012;4.346;2024-02-23T00:56:55;13.30;;;2.27;;
51987;SDS011;38003;52.012;4.346;2024-02-23T00:59:23;9.90;;;2.20;;
51987;SDS011;38003;52.012;4.346;2024-02-23T01:01:52;8.87;;;2.00;;
51987;SDS011;38003;52.012;4.346;2024-02-23T01:04:21;6.67;;;1.73;;
51987;SDS011;38003;52.012;4.346;2024-02-23T01:06:50;9.13;;;2.33;;
51987;SDS011;38003;52.012;4.346;2024-02-23T01:09:18;12.03;;;4.63;;
51987;SDS011;38003;52.012;4.346;2024-02-23T01:11:47;11.57;;;7.73;;
51987;SDS011;38003;52.012;4.346;2024-02-23T01:14:15;21.67;;;19.17;;
51987;SDS011;38003;52.012;4.346;2024-02-23T01:16:43;39.93;;;37.23;;
51987;SDS011;38003;52.012;4.346;2024-02-23T01:19:12;40.43;;;37.90;;
51987;SDS011;38003;52.012;4.346;2024-02-23T01:21:43;66.60;;;62.57;;
51987;SDS011;38003;52.012;4.346;2024-02-23T01:24:11;74.40;;;70.70;;
51987;SDS011;38003;52.012;4.346;2024-02-23T01:26:39;84.00;;;79.53;;
51987;SDS011;38003;52.012;4.346;2024-02-23T01:29:08;90.50;;;86.07;;
51987;SDS011;38003;52.012;4.346;2024-02-23T01:31:36;81.93;;;77.50;;
51987;SDS011;38003;52.012;4.346;2024-02-23T01:34:05;72.97;;;69.07;;
51987;SDS011;38003;52.012;4.346;2024-02-23T01:36:33;59.63;;;56.13;;
51987;SDS011;38003;52.012;4.346;2024-02-23T01:39:03;48.30;;;45.57;;
51987;SDS011;38003;52.012;4.346;2024-02-23T01:41:32;31.40;;;29.40;;
51987;SDS011;38003;52.012;4.346;2024-02-23T01:44:00;18.03;;;16.23;;
51987;SDS011;38003;52.012;4.346;2024-02-23T01:46:29;12.33;;;11.33;;
51987;SDS011;38003;52.012;4.346;2024-02-23T01:48:57;13.37;;;11.97;;
51987;SDS011;38003;52.012;4.346;2024-02-23T01:51:25;12.50;;;10.13;;
51987;SDS011;38003;52.012;4.346;2024-02-23T01:53:54;11.43;;;8.77;;
51987;SDS011;38003;52.012;4.346;2024-02-23T01:56:23;8.30;;;7.60;;
51987;SDS011;38003;52.012;4.346;2024-02-23T01:58:52;11.67;;;8.17;;
51987;SDS011;38003;52.012;4.346;2024-02-23T02:01:20;10.90;;;9.93;;
51987;SDS011;38003;52.012;4.346;2024-02-23T02:03:49;11.83;;;9.40;;
51987;SDS011;38003;52.012;4.346;2024-02-23T02:06:17;9.17;;;8.17;;
51987;SDS011;38003;52.012;4.346;2024-02-23T02:08:45;7.73;;;5.33;;
51987;SDS011;38003;52.012;4.346;2024-02-23T02:11:14;7.40;;;5.50;;
51987;SDS011;38003;52.012;4.346;2024-02-23T02:13:43;8.83;;;4.73;;
51987;SDS011;38003;52.012;4.346;2024-02-23T02:16:12;9.60;;;3.73;;
51987;SDS011;38003;52.012;4.346;2024-02-23T02:18:40;7.87;;;3.87;;
51987;SDS011;38003;52.012;4.346;2024-02-23T02:21:10;6.57;;;4.00;;
51987;SDS011;38003;52.012;4.346;2024-02-23T02:23:38;13.87;;;4.53;;
51987;SDS011;38003;52.012;4.346;2024-02-23T02:26:07;10.67;;;4.73;;
51987;SDS011;38003;52.012;4.346;2024-02-23T02:28:35;7.30;;;3.87;;
51987;SDS011;38003;52.012;4.346;2024-02-23T02:31:05;7.23;;;4.10;;
51987;SDS011;38003;52.012;4.346;2024-02-23T02:33:33;8.67;;;4.17;;
51987;SDS011;38003;52.012;4.346;2024-02-23T02:36:02;8.10;;;3.17;;
51987;SDS011;38003;52.012;4.346;2024-02-23T02:38:30;11.50;;;3.73;;
51987;SDS011;38003;52.012;4.346;2024-02-23T02:40:59;11.77;;;2.97;;
51987;SDS011;38003;52.012;4.346;2024-02-23T02:43:27;9.63;;;3.07;;
51987;SDS011;38003;52.012;4.346;2024-02-23T02:45:56;8.33;;;2.80;;
51987;SDS011;38003;52.012;4.346;2024-02-23T02:48:25;9.23;;;3.50;;
51987;SDS011;38003;52.012;4.346;2024-02-23T02:50:54;7.37;;;3.93;;
51987;SDS011;38003;52.012;4.346;2024-02-23T02:53:22;8.07;;;3.97;;
51987;SDS011;38003;52.012;4.346;2024-02-23T02:55:50;8.50;;;3.20;;
51987;SDS011;38003;52.012;4.346;2024-02-23T02:58:19;9.13;;;2.87;;
51987;SDS011;38003;52.012;4.346;2024-02-23T03:00:47;8.27;;;2.60;;
51987;SDS011;38003;52.012;4.346;2024-02-23T03:03:15;13.70;;;2.23;;
51987;SDS011;38003;52.012;4.346;2024-02-23T03:05:45;12.40;;;3.13;;
51987;SDS011;38003;52.012;4.346;2024-02-23T03:08:13;10.17;;;4.70;;
51987;SDS011;38003;52.012;4.346;2024-02-23T03:10:41;9.73;;;3.33;;
51987;SDS011;38003;52.012;4.346;2024-02-23T03:13:09;9.07;;;4.47;;
51987;SDS011;38003;52.012;4.346;2024-02-23T03:15:38;8.40;;;5.23;;
51987;SDS011;38003;52.012;4.346;2024-02-23T03:18:06;11.37;;;5.30;;
51987;SDS011;38003;52.012;4.346;2024-02-23T03:20:36;8.83;;;4.33;;
51987;SDS011;38003;52.012;4.346;2024-02-23T03:23:05;9.87;;;4.73;;
51987;SDS011;38003;52.012;4.346;2024-02-23T03:25:34;5.30;;;4.80;;
51987;SDS011;38003;52.012;4.346;2024-02-23T03:28:02;12.30;;;5.97;;
51987;SDS011;38003;52.012;4.346;2024-02-23T03:30:30;9.67;;;5.67;;
51987;SDS011;38003;52.012;4.346;2024-02-23T03:33:02;8.73;;;5.37;;
51987;SDS011;38003;52.012;4.346;2024-02-23T03:35:31;9.50;;;6.20;;
51987;SDS011;38003;52.012;4.346;2024-02-23T03:37:59;9.67;;;7.30;;
51987;SDS011;38003;52.012;4.346;2024-02-23T03:40:29;9.07;;;8.17;;
51987;SDS011;38003;52.012;4.346;2024-02-23T03:42:58;9.40;;;8.07;;
51987;SDS011;38003;52.012;4.346;2024-02-23T03:45:27;12.60;;;11.33;;
51987;SDS011;38003;52.012;4.346;2024-02-23T03:47:55;15.00;;;13.63;;
51987;SDS011;38003;52.012;4.346;2024-02-23T03:50:23;13.73;;;12.67;;
51987;SDS011;38003;52.012;4.346;2024-02-23T03:52:52;14.60;;;13.30;;
51987;SDS011;38003;52.012;4.346;2024-02-23T03:55:20;13.27;;;12.00;;
51987;SDS011;38003;52.012;4.346;2024-02-23T03:57:50;15.07;;;13.97;;
51987;SDS011;38003;52.012;4.346;2024-02-23T04:00:18;16.37;;;15.27;;
51987;SDS011;38003;52.012;4.346;2024-02-23T04:02:49;20.17;;;18.57;;
51987;SDS011;38003;52.012;4.346;2024-02-23T04:05:20;22.93;;;21.00;;
51987;SDS011;38003;52.012;4.346;2024-02-23T04:07:48;25.97;;;23.87;;
51987;SDS011;38003;52.012;4.346;2024-02-23T04:10:16;34.40;;;32.03;;
51987;SDS011;38003;52.012;4.346;2024-02-23T04:12:46;39.87;;;37.67;;
51987;SDS011;38003;52.012;4.346;2024-02-23T04:15:15;43.10;;;40.17;;
51987;SDS011;38003;52.012;4.346;2024-02-23T04:17:44;53.10;;;49.70;;
51987;SDS011;38003;52.012;4.346;2024-02-23T04:20:12;66.13;;;62.57;;
51987;SDS011;38003;52.012;4.346;2024-02-23T04:22:41;81.93;;;77.73;;
51987;SDS011;38003;52.012;4.346;2024-02-23T04:25:09;71.63;;;67.50;;
51987;SDS011;38003;52.012;4.346;2024-02-23T04:27:37;96.80;;;92.20;;
51987;SDS011;38003;52.012;4.346;2024-02-23T04:30:06;90.73;;;86.20;;
51987;SDS011;38003;52.012;4.346;2024-02-23T04:32:36;98.83;;;94.10;;
51987;SDS011;38003;52.012;4.346;2024-02-23T04:35:05;99.70;;;95.20;;
51987;SDS011;38003;52.012;4.346;2024-02-23T04:37:33;108.27;;;103.33;;
51987;SDS011;38003;52.012;4.346;2024-02-23T04:40:02;125.30;;;119.20;;
51987;SDS011;38003;52.012;4.346;2024-02-23T04:42:32;131.90;;;126.33;;
51987;SDS011;38003;52.012;4.346;2024-02-23T04:45:00;136.23;;;130.10;;
51987;SDS011;38003;52.012;4.346;2024-02-23T04:47:28;140.30;;;134.50;;
51987;SDS011;38003;52.012;4.346;2024-02-23T04:49:58;86.73;;;83.00;;
51987;SDS011;38003;52.012;4.346;2024-02-23T04:52:26;68.97;;;65.73;;
51987;SDS011;38003;52.012;4.346;2024-02-23T04:54:55;42.50;;;40.40;;
51987;SDS011;38003;52.012;4.346;2024-02-23T04:57:23;28.90;;;27.20;;
51987;SDS011;38003;52.012;4.346;2024-02-23T04:59:51;20.90;;;19.53;;
51987;SDS011;38003;52.012;4.346;2024-02-23T05:02:19;18.67;;;17.67;;
51987;SDS011;38003;52.012;4.346;2024-02-23T05:04:48;28.50;;;26.60;;
51987;SDS011;38003;52.012;4.346;2024-02-23T05:07:17;41.27;;;39.00;;
51987;SDS011;38003;52.012;4.346;2024-02-23T05:09:46;56.50;;;53.70;;
51987;SDS011;38003;52.012;4.346;2024-02-23T05:12:14;84.23;;;80.40;;
51987;SDS011;38003;52.012;4.346;2024-02-23T05:14:43;110.33;;;105.40;;
51987;SDS011;38003;52.012;4.346;2024-02-23T05:17:11;133.13;;;126.50;;
51987;SDS011;38003;52.012;4.346;2024-02-23T05:19:39;155.30;;;148.90;;
51987;SDS011;38003;52.012;4.346;2024-02-23T05:22:07;184.50;;;177.10;;
51987;SDS011;38003;52.012;4.346;2024-02-23T05:24:37;211.97;;;203.23;;
51987;SDS011;38003;52.012;4.346;2024-02-23T05:27:05;224.23;;;215.07;;
51987;SDS011;38003;52.012;4.346;2024-02-23T05:29:34;204.10;;;195.93;;
51987;SDS011;38003;52.012;4.346;2024-02-23T05:32:02;221.53;;;212.77;;
51987;SDS011;38003;52.012;4.346;2024-02-23T05:34:30;201.97;;;194.03;;
51987;SDS011;38003;52.012;4.346;2024-02-23T05:36:59;213.87;;;205.23;;
51987;SDS011;38003;52.012;4.346;2024-02-23T05:39:27;218.03;;;209.20;;
51987;SDS011;38003;52.012;4.346;2024-02-23T05:41:57;215.00;;;205.80;;
51987;SDS011;38003;52.012;4.346;2024-02-23T05:44:26;219.50;;;210.33;;
51987;SDS011;38003;52.012;4.346;2024-02-23T05:46:55;205.77;;;197.30;;
51987;SDS011;38003;52.012;4.346;2024-02-23T05:49:23;186.17;;;178.57;;
51987;SDS011;38003;52.012;4.346;2024-02-23T05:51:51;171.67;;;164.33;;
51987;SDS011;38003;52.012;4.346;2024-02-23T05:54:20;179.67;;;172.30;;
51987;SDS011;38003;52.012;4.346;2024-02-23T05:56:48;188.33;;;180.37;;
51987;SDS011;38003;52.012;4.346;2024-02-23T05:59:18;192.13;;;184.47;;
51987;SDS011;38003;52.012;4.346;2024-02-23T06:01:46;174.63;;;167.23;;
51987;SDS011;38003;52.012;4.346;2024-02-23T06:04:14;162.10;;;155.23;;
51987;SDS011;38003;52.012;4.346;2024-02-23T06:06:43;162.93;;;156.03;;
51987;SDS011;38003;52.012;4.346;2024-02-23T06:09:11;166.57;;;159.27;;
51987;SDS011;38003;52.012;4.346;2024-02-23T06:11:40;165.37;;;158.27;;
51987;SDS011;38003;52.012;4.346;2024-02-23T06:14:08;151.87;;;145.30;;
51987;SDS011;38003;52.012;4.346;2024-02-23T06:16:39;140.20;;;134.17;;
51987;SDS011;38003;52.012;4.346;2024-02-23T06:19:08;140.40;;;134.60;;
51987;SDS011;38003;52.012;4.346;2024-02-23T06:21:36;136.80;;;130.50;;
51987;SDS011;38003;52.012;4.346;2024-02-23T06:24:04;124.73;;;119.33;;
51987;SDS011;38003;52.012;4.346;2024-02-23T06:26:34;117.53;;;112.13;;
51987;SDS011;38003;52.012;4.346;2024-02-23T06:29:03;112.00;;;106.73;;
51987;SDS011;38003;52.012;4.346;2024-02-23T06:31:32;97.83;;;93.33;;
51987;SDS011;38003;52.012;4.346;2024-02-23T06:34:02;69.47;;;66.07;;
51987;SDS011;38003;52.012;4.346;2024-02-23T06:36:30;66.63;;;63.20;;
51987;SDS011;38003;52.012;4.346;2024-02-23T06:38:58;62.43;;;59.30;;
51987;SDS011;38003;52.012;4.346;2024-02-23T06:41:27;49.73;;;47.20;;
51987;SDS011;38003;52.012;4.346;2024-02-23T06:43:55;55.40;;;52.50;;
51987;SDS011;38003;52.012;4.346;2024-02-23T06:46:23;50.13;;;47.00;;
51987;SDS011;38003;52.012;4.346;2024-02-23T06:48:51;48.27;;;45.63;;
51987;SDS011;38003;52.012;4.346;2024-02-23T06:51:21;35.03;;;32.83;;
51987;SDS011;38003;52.012;4.346;2024-02-23T06:53:49;30.83;;;29.13;;
51987;SDS011;38003;52.012;4.346;2024-02-23T06:56:17;31.93;;;30.13;;
51987;SDS011;38003;52.012;4.346;2024-02-23T06:58:46;27.67;;;25.80;;
51987;SDS011;38003;52.012;4.346;2024-02-23T07:01:14;27.87;;;26.30;;
51987;SDS011;38003;52.012;4.346;2024-02-23T07:03:42;25.67;;;23.80;;
51987;SDS011;38003;52.012;4.346;2024-02-23T07:06:11;26.00;;;24.40;;
51987;SDS011;38003;52.012;4.346;2024-02-23T07:08:41;26.53;;;24.63;;
51987;SDS011;38003;52.012;4.346;2024-02-23T07:11:09;27.73;;;25.80;;
51987;SDS011;38003;52.012;4.346;2024-02-23T07:13:37;33.27;;;31.43;;
51987;SDS011;38003;52.012;4.346;2024-02-23T07:16:06;34.90;;;32.73;;
51987;SDS011;38003;52.012;4.346;2024-02-23T07:18:35;33.03;;;30.93;;
51987;SDS011;38003;52.012;4.346;2024-02-23T07:21:03;37.10;;;34.90;;
51987;SDS011;38003;52.012;4.346;2024-02-23T07:23:31;34.27;;;31.97;;
51987;SDS011;38003;52.012;4.346;2024-02-23T07:26:01;36.70;;;34.40;;
51987;SDS011;38003;52.012;4.346;2024-02-23T07:28:29;35.97;;;33.60;;
51987;SDS011;38003;52.012;4.346;2024-02-23T07:30:59;36.77;;;34.60;;
51987;SDS011;38003;52.012;4.346;2024-02-23T07:33:27;34.27;;;32.07;;
51987;SDS011;38003;52.012;4.346;2024-02-23T07:35:56;36.23;;;34.23;;
51987;SDS011;38003;52.012;4.346;2024-02-23T07:38:24;30.23;;;28.37;;
51987;SDS011;38003;52.012;4.346;2024-02-23T07:40:53;38.20;;;36.13;;
51987;SDS011;38003;52.012;4.346;2024-02-23T07:43:22;42.93;;;40.63;;
51987;SDS011;38003;52.012;4.346;2024-02-23T07:45:52;53.53;;;50.47;;
51987;SDS011;38003;52.012;4.346;2024-02-23T07:48:20;71.00;;;67.67;;
51987;SDS011;38003;52.012;4.346;2024-02-23T07:50:49;78.67;;;74.80;;
51987;SDS011;38003;52.012;4.346;2024-02-23T07:53:17;91.60;;;87.37;;
51987;SDS011;38003;52.012;4.346;2024-02-23T07:55:45;108.43;;;103.23;;
51987;SDS011;38003;52.012;4.346;2024-02-23T07:58:14;123.17;;;117.70;;
51987;SDS011;38003;52.012;4.346;2024-02-23T08:00:43;155.33;;;148.50;;
51987;SDS011;38003;52.012;4.346;2024-02-23T08:03:13;180.40;;;172.20;;
51987;SDS011;38003;52.012;4.346;2024-02-23T08:05:41;206.83;;;197.93;;
51987;SDS011;38003;52.012;4.346;2024-02-23T08:08:09;241.70;;;231.47;;
51987;SDS011;38003;52.012;4.346;2024-02-23T08:10:38;266.03;;;255.07;;
51987;SDS011;38003;52.012;4.346;2024-02-23T08:13:06;277.47;;;266.37;;
51987;SDS011;38003;52.012;4.346;2024-02-23T08:15:34;309.30;;;296.97;;
51987;SDS011;38003;52.012;4.346;2024-02-23T08:18:04;332.30;;;318.93;;
51987;SDS011;38003;52.012;4.346;2024-02-23T08:20:32;367.37;;;352.33;;
51987;SDS011;38003;52.012;4.346;2024-02-23T08:23:00;388.97;;;373.37;;
51987;SDS011;38003;52.012;4.346;2024-02-23T08:25:29;411.53;;;394.60;;
51987;SDS011;38003;52.012;4.346;2024-02-23T08:27:57;410.00;;;393.63;;
51987;SDS011;38003;52.012;4.346;2024-02-23T08:30:25;440.80;;;423.53;;
51987;SDS011;38003;52.012;4.346;2024-02-23T08:32:54;406.00;;;389.43;;
51987;SDS011;38003;52.012;4.346;2024-02-23T08:35:23;422.07;;;405.30;;
51987;SDS011;38003;52.012;4.346;2024-02-23T08:37:52;382.70;;;367.40;;
51987;SDS011;38003;52.012;4.346;2024-02-23T08:40:20;392.43;;;376.67;;
51987;SDS011;38003;52.012;4.346;2024-02-23T08:42:48;434.57;;;417.17;;
51987;SDS011;38003;52.012;4.346;2024-02-23T08:45:18;438.50;;;420.80;;
51987;SDS011;38003;52.012;4.346;2024-02-23T08:47:46;487.27;;;468.07;;
51987;SDS011;38003;52.012;4.346;2024-02-23T08:50:14;494.30;;;474.53;;
51987;SDS011;38003;52.012;4.346;2024-02-23T08:52:44;506.10;;;486.23;;
51987;SDS011;38003;52.012;4.346;2024-02-23T08:55:12;557.80;;;535.60;;
51987;SDS011;38003;52.012;4.346;2024-02-23T08:57:40;565.17;;;542.37;;
51987;SDS011;38003;52.012;4.346;2024-02-23T09:00:09;589.10;;;565.47;;
51987;SDS011;38003;52.012;4.346;2024-02-23T09:02:43;561.60;;;538.57;;
51987;SDS011;38003;52.012;4.346;2024-02-23T09:05:11;559.03;;;536.73;;
51987;SDS011;38003;52.012;4.346;2024-02-23T09:07:40;606.70;;;581.83;;
51987;SDS011;38003;52.012;4.346;2024-02-23T09:10:10;624.17;;;598.40;;
51987;SDS011;38003;52.012;4.346;2024-02-23T09:12:39;621.57;;;596.50;;
51987;SDS011;38003;52.012;4.346;2024-02-23T09:15:07;633.37;;;608.27;;
51987;SDS011;38003;52.012;4.346;2024-02-23T09:17:35;573.03;;;549.80;;
51987;SDS011;38003;52.012;4.346;2024-02-23T09:20:04;569.40;;;546.50;;
51987;SDS011;38003;52.012;4.346;2024-02-23T09:22:34;599.73;;;575.60;;
51987;SDS011;38003;52.012;4.346;2024-02-23T09:25:03;574.20;;;550.93;;
51987;SDS011;38003;52.012;4.346;2024-02-23T09:27:33;584.77;;;561.37;;
51987;SDS011;38003;52.012;4.346;2024-02-23T09:30:03;573.33;;;550.30;;
51987;SDS011;38003;52.012;4.346;2024-02-23T09:32:32;574.77;;;551.60;;
51987;SDS011;38003;52.012;4.346;2024-02-23T09:35:00;549.87;;;527.70;;
51987;SDS011;38003;52.012;4.346;2024-02-23T09:37:30;548.63;;;526.40;;
51987;SDS011;38003;52.012;4.346;2024-02-23T09:39:58;536.07;;;513.97;;
51987;SDS011;38003;52.012;4.346;2024-02-23T09:42:27;548.47;;;526.40;;
51987;SDS011;38003;52.012;4.346;2024-02-23T09:45:00;519.83;;;499.17;;
51987;SDS011;38003;52.012;4.346;2024-02-23T09:47:28;487.03;;;467.40;;
51987;SDS011;38003;52.012;4.346;2024-02-23T09:49:57;465.63;;;447.13;;
51987;SDS011;38003;52.012;4.346;2024-02-23T09:52:27;439.57;;;421.73;;
51987;SDS011;38003;52.012;4.346;2024-02-23T09:54:56;390.73;;;374.90;;
51987;SDS011;38003;52.012;4.346;2024-02-23T09:57:24;400.50;;;384.53;;
51987;SDS011;38003;52.012;4.346;2024-02-23T09:59:52;346.40;;;332.57;;
51987;SDS011;38003;52.012;4.346;2024-02-23T10:02:22;265.57;;;255.00;;
51987;SDS011;38003;52.012;4.346;2024-02-23T10:04:50;236.93;;;227.43;;
51987;SDS011;38003;52.012;4.346;2024-02-23T10:07:19;247.17;;;237.17;;
51987;SDS011;38003;52.012;4.346;2024-02-23T10:09:48;252.60;;;242.70;;
51987;SDS011;38003;52.012;4.346;2024-02-23T10:12:16;181.17;;;173.70;;
51987;SDS011;38003;52.012;4.346;2024-02-23T10:14:44;143.23;;;136.97;;
51987;SDS011;38003;52.012;4.346;2024-02-23T10:17:13;114.97;;;109.87;;
51987;SDS011;38003;52.012;4.346;2024-02-23T10:19:43;111.40;;;106.40;;
51987;SDS011;38003;52.012;4.346;2024-02-23T10:22:12;90.17;;;85.73;;
51987;SDS011;38003;52.012;4.346;2024-02-23T10:24:41;87.20;;;83.30;;
51987;SDS011;38003;52.012;4.346;2024-02-23T10:27:10;83.53;;;79.63;;
51987;SDS011;38003;52.012;4.346;2024-02-23T10:29:38;92.63;;;88.53;;
51987;SDS011;38003;52.012;4.346;2024-02-23T10:32:06;114.20;;;109.00;;
51987;SDS011;38003;52.012;4.346;2024-02-23T10:34:35;93.80;;;89.40;;
51987;SDS011;38003;52.012;4.346;2024-02-23T10:37:11;72.63;;;69.10;;
51987;SDS011;38003;52.012;4.346;2024-02-23T10:39:39;76.73;;;73.03;;
51987;SDS011;38003;52.012;4.346;2024-02-23T10:42:09;86.57;;;82.53;;
51987;SDS011;38003;52.012;4.346;2024-02-23T10:44:38;56.00;;;53.03;;
51987;SDS011;38003;52.012;4.346;2024-02-23T10:47:07;37.90;;;35.83;;
51987;SDS011;38003;52.012;4.346;2024-02-23T10:49:35;32.60;;;30.87;;
51987;SDS011;38003;52.012;4.346;2024-02-23T10:52:04;24.60;;;23.03;;
51987;SDS011;38003;52.012;4.346;2024-02-23T10:54:35;21.47;;;20.37;;
51987;SDS011;38003;52.012;4.346;2024-02-23T10:57:04;23.40;;;22.10;;
51987;SDS011;38003;52.012;4.346;2024-02-23T10:59:32;16.53;;;15.53;;
51987;SDS011;38003;52.012;4.346;2024-02-23T11:02:01;23.30;;;21.80;;
51987;SDS011;38003;52.012;4.346;2024-02-23T11:04:30;23.30;;;21.90;;
51987;SDS011;38003;52.012;4.346;2024-02-23T11:06:59;20.40;;;19.10;;
51987;SDS011;38003;52.012;4.346;2024-02-23T11:09:34;17.57;;;16.53;;
51987;SDS011;38003;52.012;4.346;2024-02-23T11:12:05;19.57;;;18.37;;
51987;SDS011;38003;52.012;4.346;2024-02-23T11:14:34;25.33;;;23.93;;
51987;SDS011;38003;52.012;4.346;2024-02-23T11:17:03;23.67;;;22.23;;
51987;SDS011;38003;52.012;4.346;2024-02-23T11:19:32;23.80;;;22.43;;
51987;SDS011;38003;52.012;4.346;2024-02-23T11:22:02;25.23;;;23.87;;
51987;SDS011;38003;52.012;4.346;2024-02-23T11:24:32;15.03;;;14.13;;
51987;SDS011;38003;52.012;4.346;2024-02-23T11:27:01;15.63;;;14.27;;
51987;SDS011;38003;52.012;4.346;2024-02-23T11:29:36;15.37;;;14.47;;
51987;SDS011;38003;52.012;4.346;2024-02-23T11:32:12;16.67;;;15.20;;
51987;SDS011;38003;52.012;4.346;2024-02-23T11:34:40;14.13;;;13.43;;
51987;SDS011;38003;52.012;4.346;2024-02-23T11:37:09;16.43;;;15.47;;
51987;SDS011;38003;52.012;4.346;2024-02-23T11:39:38;17.83;;;16.83;;
51987;SDS011;38003;52.012;4.346;2024-02-23T11:42:06;17.67;;;16.67;;
51987;SDS011;38003;52.012;4.346;2024-02-23T11:44:36;23.30;;;22.13;;
51987;SDS011;38003;52.012;4.346;2024-02-23T11:47:05;14.30;;;13.50;;
51987;SDS011;38003;52.012;4.346;2024-02-23T11:49:33;7.60;;;7.00;;
51987;SDS011;38003;52.012;4.346;2024-02-23T11:52:02;9.90;;;9.23;;
51987;SDS011;38003;52.012;4.346;2024-02-23T11:54:30;10.80;;;9.70;;
51987;SDS011;38003;52.012;4.346;2024-02-23T11:56:58;10.50;;;9.73;;
51987;SDS011;38003;52.012;4.346;2024-02-23T11:59:26;6.60;;;5.93;;
51987;SDS011;38003;52.012;4.346;2024-02-23T12:01:56;4.03;;;2.83;;
51987;SDS011;38003;52.012;4.346;2024-02-23T12:04:27;6.23;;;3.77;;
51987;SDS011;38003;52.012;4.346;2024-02-23T12:06:55;4.07;;;3.67;;
51987;SDS011;38003;52.012;4.346;2024-02-23T12:09:24;7.13;;;4.70;;
51987;SDS011;38003;52.012;4.346;2024-02-23T12:11:52;6.67;;;3.87;;
51987;SDS011;38003;52.012;4.346;2024-02-23T12:14:21;3.97;;;1.97;;
51987;SDS011;38003;52.012;4.346;2024-02-23T12:16:51;7.37;;;2.00;;
51987;SDS011;38003;52.012;4.346;2024-02-23T12:19:20;3.83;;;1.60;;
51987;SDS011;38003;52.012;4.346;2024-02-23T12:21:50;4.47;;;1.70;;
51987;SDS011;38003;52.012;4.346;2024-02-23T12:24:19;6.07;;;1.53;;
51987;SDS011;38003;52.012;4.346;2024-02-23T12:26:52;5.70;;;1.60;;
51987;SDS011;38003;52.012;4.346;2024-02-23T12:29:21;4.03;;;1.73;;
51987;SDS011;38003;52.012;4.346;2024-02-23T12:31:49;3.93;;;1.50;;
51987;SDS011;38003;52.012;4.346;2024-02-23T12:34:18;4.27;;;1.30;;
51987;SDS011;38003;52.012;4.346;2024-02-23T12:36:49;4.57;;;1.33;;
51987;SDS011;38003;52.012;4.346;2024-02-23T12:39:17;4.67;;;1.40;;
51987;SDS011;38003;52.012;4.346;2024-02-23T12:41:45;4.47;;;1.30;;
51987;SDS011;38003;52.012;4.346;2024-02-23T12:44:14;5.83;;;1.40;;
51987;SDS011;38003;52.012;4.346;2024-02-23T12:46:42;3.23;;;1.33;;
51987;SDS011;38003;52.012;4.346;2024-02-23T12:49:10;5.27;;;1.20;;
51987;SDS011;38003;52.012;4.346;2024-02-23T12:51:38;6.83;;;1.27;;
51987;SDS011;38003;52.012;4.346;2024-02-23T12:54:08;3.50;;;1.23;;
51987;SDS011;38003;52.012;4.346;2024-02-23T12:56:36;3.53;;;1.27;;
51987;SDS011;38003;52.012;4.346;2024-02-23T12:59:05;6.30;;;1.40;;
51987;SDS011;38003;52.012;4.346;2024-02-23T13:01:35;5.43;;;1.10;;
51987;SDS011;38003;52.012;4.346;2024-02-23T13:04:09;3.67;;;1.10;;
51987;SDS011;38003;52.012;4.346;2024-02-23T13:06:39;2.43;;;0.70;;
51987;SDS011;38003;52.012;4.346;2024-02-23T13:09:10;2.43;;;0.70;;
51987;SDS011;38003;52.012;4.346;2024-02-23T13:11:39;1.40;;;0.53;;
51987;SDS011;38003;52.012;4.346;2024-02-23T13:14:07;4.10;;;0.73;;
51987;SDS011;38003;52.012;4.346;2024-02-23T13:16:36;1.70;;;0.70;;
51987;SDS011;38003;52.012;4.346;2024-02-23T13:19:04;4.50;;;0.77;;
51987;SDS011;38003;52.012;4.346;2024-02-23T13:21:33;2.00;;;1.13;;
51987;SDS011;38003;52.012;4.346;2024-02-23T13:24:01;1.20;;;0.60;;
51987;SDS011;38003;52.012;4.346;2024-02-23T13:26:31;3.60;;;1.13;;
51987;SDS011;38003;52.012;4.346;2024-02-23T13:28:59;2.93;;;0.57;;
51987;SDS011;38003;52.012;4.346;2024-02-23T13:31:27;1.33;;;0.50;;
51987;SDS011;38003;52.012;4.346;2024-02-23T13:33:56;1.73;;;0.57;;
51987;SDS011;38003;52.012;4.346;2024-02-23T13:36:24;1.47;;;0.60;;
51987;SDS011;38003;52.012;4.346;2024-02-23T13:38:52;1.50;;;0.50;;
51987;SDS011;38003;52.012;4.346;2024-02-23T13:41:24;2.07;;;0.70;;
51987;SDS011;38003;52.012;4.346;2024-02-23T13:43:53;1.23;;;0.60;;
51987;SDS011;38003;52.012;4.346;2024-02-23T13:46:21;1.13;;;0.57;;
51987;SDS011;38003;52.012;4.346;2024-02-23T13:49:01;2.07;;;0.63;;
51987;SDS011;38003;52.012;4.346;2024-02-23T13:51:30;2.93;;;0.50;;
51987;SDS011;38003;52.012;4.346;2024-02-23T13:53:58;2.30;;;0.60;;
51987;SDS011;38003;52.012;4.346;2024-02-23T13:56:27;1.60;;;0.50;;
51987;SDS011;38003;52.012;4.346;2024-02-23T13:58:56;1.43;;;0.73;;
51987;SDS011;38003;52.012;4.346;2024-02-23T14:01:25;3.00;;;0.67;;
51987;SDS011;38003;52.012;4.346;2024-02-23T14:03:53;1.73;;;0.90;;
51987;SDS011;38003;52.012;4.346;2024-02-23T14:06:22;4.13;;;0.80;;
51987;SDS011;38003;52.012;4.346;2024-02-23T14:08:50;2.27;;;0.80;;
51987;SDS011;38003;52.012;4.346;2024-02-23T14:11:18;2.00;;;0.57;;
51987;SDS011;38003;52.012;4.346;2024-02-23T14:13:47;2.80;;;0.60;;
51987;SDS011;38003;52.012;4.346;2024-02-23T14:16:18;1.33;;;0.60;;
51987;SDS011;38003;52.012;4.346;2024-02-23T14:18:47;2.47;;;0.60;;
51987;SDS011;38003;52.012;4.346;2024-02-23T14:21:15;3.03;;;0.80;;
51987;SDS011;38003;52.012;4.346;2024-02-23T14:23:44;2.90;;;0.90;;
51987;SDS011;38003;52.012;4.346;2024-02-23T14:26:12;2.07;;;0.63;;
51987;SDS011;38003;52.012;4.346;2024-02-23T14:28:41;2.00;;;0.77;;
51987;SDS011;38003;52.012;4.346;2024-02-23T14:31:09;1.10;;;0.70;;
51987;SDS011;38003;52.012;4.346;2024-02-23T14:33:39;2.57;;;0.93;;